sensor_id;sensor_type;location;lat;lon;timestamp;P1;durP1;ratioP1;P2;durP2;ratioP2
15555;SDS011;7879;48.660;9.116;2023-10-09T00:01:44;0.20;;;0.20;;
15555;SDS011;7879;48.660;9.116;2023-10-09T00:04:12;0.30;;;0.30;;
15555;SDS011;7879;48.660;9.116;2023-10-09T00:06:43;0.20;;;0.20;;
15555;SDS011;7879;48.660;9.116;2023-10-09T00:09:10;0.20;;;0.20;;
15555;SDS011;7879;48.660;9.116;2023-10-09T00:11:45;0.20;;;0.20;;
15555;SDS011;7879;48.660;9.116;2023-10-09T00:14:11;0.20;;;0.20;;
15555;SDS011;7879;48.660;9.116;2023-10-09T00:16:39;0.20;;;0.20;;
15555;SDS011;7879;48.660;9.116;2023-10-09T00:19:15;0.20;;;0.20;;
15555;SDS011;7879;48.660;9.116;2023-10-09T00:22:08;0.20;;;0.20;;
15555;SDS011;7879;48.660;9.116;2023-10-09T00:24:52;0.30;;;0.30;;
15555;SDS011;7879;48.660;9.116;2023-10-09T00:27:41;0.20;;;0.20;;
15555;SDS011;7879;48.660;9.116;2023-10-09T00:30:13;0.20;;;0.20;;
15555;SDS011;7879;48.660;9.116;2023-10-09T00:32:44;0.30;;;0.30;;
15555;SDS011;7879;48.660;9.116;2023-10-09T00:35:35;0.20;;;0.20;;
15555;SDS011;7879;48.660;9.116;2023-10-09T00:38:04;0.20;;;0.20;;
15555;SDS011;7879;48.660;9.116;2023-10-09T00:40:46;0.20;;;0.20;;
15555;SDS011;7879;48.660;9.116;2023-10-09T00:43:22;0.20;;;0.20;;
15555;SDS011;7879;48.660;9.116;2023-10-09T00:45:54;0.13;;;0.13;;
15555;SDS011;7879;48.660;9.116;2023-10-09T00:48:22;0.20;;;0.20;;
15555;SDS011;7879;48.660;9.116;2023-10-09T00:50:57;0.10;;;0.10;;
15555;SDS011;7879;48.660;9.116;2023-10-09T00:53:27;0.30;;;0.30;;
15555;SDS011;7879;48.660;9.116;2023-10-09T00:56:00;0.10;;;0.10;;
15555;SDS011;7879;48.660;9.116;2023-10-09T00:58:47;0.20;;;0.20;;
15555;SDS011;7879;48.660;9.116;2023-10-09T01:01:22;0.20;;;0.20;;
15555;SDS011;7879;48.660;9.116;2023-10-09T01:04:01;0.20;;;0.20;;
15555;SDS011;7879;48.660;9.116;2023-10-09T01:06:45;0.20;;;0.20;;
15555;SDS011;7879;48.660;9.116;2023-10-09T01:09:32;0.20;;;0.20;;
15555;SDS011;7879;48.660;9.116;2023-10-09T01:12:08;0.20;;;0.20;;
15555;SDS011;7879;48.660;9.116;2023-10-09T01:14:43;0.15;;;0.15;;
15555;SDS011;7879;48.660;9.116;2023-10-09T01:17:11;0.20;;;0.20;;
15555;SDS011;7879;48.660;9.116;2023-10-09T01:19:44;0.20;;;0.20;;
15555;SDS011;7879;48.660;9.116;2023-10-09T01:22:13;0.20;;;0.20;;
15555;SDS011;7879;48.660;9.116;2023-10-09T01:24:41;0.20;;;0.20;;
15555;SDS011;7879;48.660;9.116;2023-10-09T01:27:09;0.20;;;0.20;;
15555;SDS011;7879;48.660;9.116;2023-10-09T01:29:43;0.20;;;0.20;;
15555;SDS011;7879;48.660;9.116;2023-10-09T01:32:12;0.20;;;0.20;;
15555;SDS011;7879;48.660;9.116;2023-10-09T01:34:46;0.20;;;0.20;;
15555;SDS011;7879;48.660;9.116;2023-10-09T01:37:17;0.20;;;0.20;;
15555;SDS011;7879;48.660;9.116;2023-10-09T01:39:50;0.17;;;0.17;;
15555;SDS011;7879;48.660;9.116;2023-10-09T01:42:19;0.30;;;0.30;;
15555;SDS011;7879;48.660;9.116;2023-10-09T01:44:54;0.20;;;0.20;;
15555;SDS011;7879;48.660;9.116;2023-10-09T01:47:21;0.20;;;0.20;;
15555;SDS011;7879;48.660;9.116;2023-10-09T01:49:48;0.20;;;0.20;;
15555;SDS011;7879;48.660;9.116;2023-10-09T01:52:16;0.20;;;0.20;;
15555;SDS011;7879;48.660;9.116;2023-10-09T01:54:46;0.30;;;0.30;;
15555;SDS011;7879;48.660;9.116;2023-10-09T01:57:17;0.17;;;0.17;;
15555;SDS011;7879;48.660;9.116;2023-10-09T01:59:51;0.10;;;0.10;;
15555;SDS011;7879;48.660;9.116;2023-10-09T02:02:21;0.20;;;0.20;;
15555;SDS011;7879;48.660;9.116;2023-10-09T02:05:02;0.20;;;0.20;;
15555;SDS011;7879;48.660;9.116;2023-10-09T02:07:50;0.10;;;0.10;;
15555;SDS011;7879;48.660;9.116;2023-10-09T02:10:21;0.20;;;0.20;;
15555;SDS011;7879;48.660;9.116;2023-10-09T02:12:56;0.20;;;0.20;;
15555;SDS011;7879;48.660;9.116;2023-10-09T02:15:28;0.13;;;0.13;;
15555;SDS011;7879;48.660;9.116;2023-10-09T02:18:12;0.20;;;0.20;;
15555;SDS011;7879;48.660;9.116;2023-10-09T02:20:44;0.20;;;0.20;;
15555;SDS011;7879;48.660;9.116;2023-10-09T02:23:12;0.23;;;0.23;;
15555;SDS011;7879;48.660;9.116;2023-10-09T02:25:40;0.10;;;0.10;;
15555;SDS011;7879;48.660;9.116;2023-10-09T02:28:09;0.20;;;0.20;;
15555;SDS011;7879;48.660;9.116;2023-10-09T02:30:45;0.20;;;0.20;;
15555;SDS011;7879;48.660;9.116;2023-10-09T02:33:17;0.20;;;0.20;;
15555;SDS011;7879;48.660;9.116;2023-10-09T02:35:59;0.10;;;0.10;;
15555;SDS011;7879;48.660;9.116;2023-10-09T02:38:32;0.10;;;0.10;;
15555;SDS011;7879;48.660;9.116;2023-10-09T02:41:04;0.20;;;0.20;;
15555;SDS011;7879;48.660;9.116;2023-10-09T02:43:33;0.20;;;0.20;;
15555;SDS011;7879;48.660;9.116;2023-10-09T02:46:11;0.10;;;0.10;;
15555;SDS011;7879;48.660;9.116;2023-10-09T02:48:45;0.10;;;0.10;;
15555;SDS011;7879;48.660;9.116;2023-10-09T02:51:19;0.20;;;0.20;;
15555;SDS011;7879;48.660;9.116;2023-10-09T02:53:56;0.20;;;0.20;;
15555;SDS011;7879;48.660;9.116;2023-10-09T02:56:25;0.10;;;0.10;;
15555;SDS011;7879;48.660;9.116;2023-10-09T02:59:09;0.10;;;0.10;;
15555;SDS011;7879;48.660;9.116;2023-10-09T03:01:37;0.15;;;0.15;;
15555;SDS011;7879;48.660;9.116;2023-10-09T03:04:05;0.20;;;0.20;;
15555;SDS011;7879;48.660;9.116;2023-10-09T03:06:32;0.10;;;0.10;;
15555;SDS011;7879;48.660;9.116;2023-10-09T03:09:06;0.10;;;0.10;;
15555;SDS011;7879;48.660;9.116;2023-10-09T03:11:44;0.10;;;0.10;;
15555;SDS011;7879;48.660;9.116;2023-10-09T03:14:20;0.20;;;0.20;;
15555;SDS011;7879;48.660;9.116;2023-10-09T03:16:47;0.20;;;0.20;;
15555;SDS011;7879;48.660;9.116;2023-10-09T03:19:15;0.10;;;0.10;;
15555;SDS011;7879;48.660;9.116;2023-10-09T03:21:42;0.10;;;0.10;;
15555;SDS011;7879;48.660;9.116;2023-10-09T03:24:09;0.20;;;0.20;;
15555;SDS011;7879;48.660;9.116;2023-10-09T03:26:38;0.10;;;0.10;;
15555;SDS011;7879;48.660;9.116;2023-10-09T03:29:05;0.10;;;0.10;;
15555;SDS011;7879;48.660;9.116;2023-10-09T03:31:37;0.20;;;0.20;;
15555;SDS011;7879;48.660;9.116;2023-10-09T03:34:04;0.20;;;0.20;;
15555;SDS011;7879;48.660;9.116;2023-10-09T03:36:32;0.10;;;0.10;;
15555;SDS011;7879;48.660;9.116;2023-10-09T03:39:05;0.10;;;0.10;;
15555;SDS011;7879;48.660;9.116;2023-10-09T03:41:45;0.20;;;0.20;;
15555;SDS011;7879;48.660;9.116;2023-10-09T03:44:14;0.20;;;0.20;;
15555;SDS011;7879;48.660;9.116;2023-10-09T03:46:45;0.20;;;0.20;;
15555;SDS011;7879;48.660;9.116;2023-10-09T03:49:12;0.20;;;0.20;;
15555;SDS011;7879;48.660;9.116;2023-10-09T03:51:39;0.20;;;0.20;;
15555;SDS011;7879;48.660;9.116;2023-10-09T03:54:08;0.20;;;0.20;;
15555;SDS011;7879;48.660;9.116;2023-10-09T03:56:35;0.20;;;0.20;;
15555;SDS011;7879;48.660;9.116;2023-10-09T03:59:02;0.10;;;0.10;;
15555;SDS011;7879;48.660;9.116;2023-10-09T04:01:31;0.20;;;0.20;;
15555;SDS011;7879;48.660;9.116;2023-10-09T04:04:07;0.20;;;0.20;;
15555;SDS011;7879;48.660;9.116;2023-10-09T04:06:37;0.20;;;0.20;;
15555;SDS011;7879;48.660;9.116;2023-10-09T04:09:06;0.10;;;0.10;;
15555;SDS011;7879;48.660;9.116;2023-10-09T04:11:54;0.10;;;0.10;;
15555;SDS011;7879;48.660;9.116;2023-10-09T04:14:40;0.10;;;0.10;;
15555;SDS011;7879;48.660;9.116;2023-10-09T04:17:16;0.20;;;0.20;;
15555;SDS011;7879;48.660;9.116;2023-10-09T04:19:49;0.20;;;0.20;;
15555;SDS011;7879;48.660;9.116;2023-10-09T04:22:36;0.20;;;0.20;;
15555;SDS011;7879;48.660;9.116;2023-10-09T04:25:20;0.10;;;0.10;;
15555;SDS011;7879;48.660;9.116;2023-10-09T04:27:56;0.10;;;0.10;;
15555;SDS011;7879;48.660;9.116;2023-10-09T04:30:46;0.10;;;0.10;;
15555;SDS011;7879;48.660;9.116;2023-10-09T04:33:13;0.10;;;0.10;;
15555;SDS011;7879;48.660;9.116;2023-10-09T04:36:04;0.10;;;0.10;;
15555;SDS011;7879;48.660;9.116;2023-10-09T04:38:47;0.20;;;0.20;;
15555;SDS011;7879;48.660;9.116;2023-10-09T04:41:31;0.20;;;0.20;;
15555;SDS011;7879;48.660;9.116;2023-10-09T04:44:19;0.20;;;0.20;;
15555;SDS011;7879;48.660;9.116;2023-10-09T04:46:49;0.20;;;0.20;;
15555;SDS011;7879;48.660;9.116;2023-10-09T04:49:40;0.20;;;0.20;;
15555;SDS011;7879;48.660;9.116;2023-10-09T04:52:30;0.10;;;0.10;;
15555;SDS011;7879;48.660;9.116;2023-10-09T04:54:57;0.20;;;0.20;;
15555;SDS011;7879;48.660;9.116;2023-10-09T04:57:34;0.20;;;0.20;;
15555;SDS011;7879;48.660;9.116;2023-10-09T05:00:27;0.20;;;0.20;;
15555;SDS011;7879;48.660;9.116;2023-10-09T05:02:55;0.10;;;0.10;;
15555;SDS011;7879;48.660;9.116;2023-10-09T05:05:37;0.20;;;0.20;;
15555;SDS011;7879;48.660;9.116;2023-10-09T05:08:17;0.23;;;0.23;;
15555;SDS011;7879;48.660;9.116;2023-10-09T05:10:49;0.17;;;0.17;;
15555;SDS011;7879;48.660;9.116;2023-10-09T05:18:55;0.20;;;0.20;;
15555;SDS011;7879;48.660;9.116;2023-10-09T05:21:24;0.20;;;0.20;;
15555;SDS011;7879;48.660;9.116;2023-10-09T05:24:00;0.17;;;0.17;;
15555;SDS011;7879;48.660;9.116;2023-10-09T05:29:19;0.22;;;0.22;;
15555;SDS011;7879;48.660;9.116;2023-10-09T05:32:00;0.20;;;0.20;;
15555;SDS011;7879;48.660;9.116;2023-10-09T05:34:44;0.10;;;0.10;;
15555;SDS011;7879;48.660;9.116;2023-10-09T05:37:28;0.10;;;0.10;;
15555;SDS011;7879;48.660;9.116;2023-10-09T05:40:01;0.20;;;0.20;;
15555;SDS011;7879;48.660;9.116;2023-10-09T05:42:44;0.20;;;0.20;;
15555;SDS011;7879;48.660;9.116;2023-10-09T05:45:17;0.20;;;0.20;;
15555;SDS011;7879;48.660;9.116;2023-10-09T05:47:46;0.20;;;0.20;;
15555;SDS011;7879;48.660;9.116;2023-10-09T05:50:21;0.20;;;0.20;;
15555;SDS011;7879;48.660;9.116;2023-10-09T05:52:55;0.20;;;0.20;;
15555;SDS011;7879;48.660;9.116;2023-10-09T05:55:30;0.20;;;0.20;;
15555;SDS011;7879;48.660;9.116;2023-10-09T05:58:16;0.10;;;0.10;;
15555;SDS011;7879;48.660;9.116;2023-10-09T06:01:02;0.10;;;0.10;;
15555;SDS011;7879;48.660;9.116;2023-10-09T06:03:51;0.10;;;0.10;;
15555;SDS011;7879;48.660;9.116;2023-10-09T06:06:22;0.20;;;0.20;;
15555;SDS011;7879;48.660;9.116;2023-10-09T06:09:08;0.20;;;0.20;;
15555;SDS011;7879;48.660;9.116;2023-10-09T06:11:54;0.20;;;0.20;;
15555;SDS011;7879;48.660;9.116;2023-10-09T06:14:41;0.20;;;0.20;;
15555;SDS011;7879;48.660;9.116;2023-10-09T06:17:08;0.10;;;0.10;;
15555;SDS011;7879;48.660;9.116;2023-10-09T06:19:38;0.10;;;0.10;;
15555;SDS011;7879;48.660;9.116;2023-10-09T06:22:10;0.20;;;0.20;;
15555;SDS011;7879;48.660;9.116;2023-10-09T06:24:38;0.20;;;0.20;;
15555;SDS011;7879;48.660;9.116;2023-10-09T06:27:10;0.20;;;0.20;;
15555;SDS011;7879;48.660;9.116;2023-10-09T06:29:40;0.10;;;0.10;;
15555;SDS011;7879;48.660;9.116;2023-10-09T06:32:11;0.20;;;0.20;;
15555;SDS011;7879;48.660;9.116;2023-10-09T06:37:12;0.20;;;0.20;;
15555;SDS011;7879;48.660;9.116;2023-10-09T06:39:52;0.20;;;0.20;;
15555;SDS011;7879;48.660;9.116;2023-10-09T06:42:26;0.13;;;0.13;;
15555;SDS011;7879;48.660;9.116;2023-10-09T06:45:00;0.10;;;0.10;;
15555;SDS011;7879;48.660;9.116;2023-10-09T06:47:40;0.10;;;0.10;;
15555;SDS011;7879;48.660;9.116;2023-10-09T06:52:50;0.10;;;0.10;;
15555;SDS011;7879;48.660;9.116;2023-10-09T06:55:24;0.10;;;0.10;;
15555;SDS011;7879;48.660;9.116;2023-10-09T06:58:03;0.10;;;0.10;;
15555;SDS011;7879;48.660;9.116;2023-10-09T07:00:39;0.10;;;0.10;;
15555;SDS011;7879;48.660;9.116;2023-10-09T07:03:25;0.20;;;0.20;;
15555;SDS011;7879;48.660;9.116;2023-10-09T07:08:36;0.20;;;0.20;;
15555;SDS011;7879;48.660;9.116;2023-10-09T07:11:04;0.20;;;0.20;;
15555;SDS011;7879;48.660;9.116;2023-10-09T07:14:13;0.10;;;0.10;;
15555;SDS011;7879;48.660;9.116;2023-10-09T07:16:56;0.10;;;0.10;;
15555;SDS011;7879;48.660;9.116;2023-10-09T07:19:42;0.20;;;0.20;;
15555;SDS011;7879;48.660;9.116;2023-10-09T07:22:10;0.20;;;0.20;;
15555;SDS011;7879;48.660;9.116;2023-10-09T07:24:51;0.10;;;0.10;;
15555;SDS011;7879;48.660;9.116;2023-10-09T07:27:39;0.10;;;0.10;;
15555;SDS011;7879;48.660;9.116;2023-10-09T07:30:17;0.10;;;0.10;;
15555;SDS011;7879;48.660;9.116;2023-10-09T07:33:02;0.20;;;0.20;;
15555;SDS011;7879;48.660;9.116;2023-10-09T07:35:38;0.10;;;0.10;;
15555;SDS011;7879;48.660;9.116;2023-10-09T07:38:16;0.10;;;0.10;;
15555;SDS011;7879;48.660;9.116;2023-10-09T07:40:56;0.10;;;0.10;;
15555;SDS011;7879;48.660;9.116;2023-10-09T07:43:26;0.10;;;0.10;;
15555;SDS011;7879;48.660;9.116;2023-10-09T07:46:02;0.10;;;0.10;;
15555;SDS011;7879;48.660;9.116;2023-10-09T07:48:48;0.10;;;0.10;;
15555;SDS011;7879;48.660;9.116;2023-10-09T07:51:18;0.10;;;0.10;;
15555;SDS011;7879;48.660;9.116;2023-10-09T07:54:00;0.10;;;0.10;;
15555;SDS011;7879;48.660;9.116;2023-10-09T07:56:34;0.10;;;0.10;;
15555;SDS011;7879;48.660;9.116;2023-10-09T07:59:19;0.10;;;0.10;;
15555;SDS011;7879;48.660;9.116;2023-10-09T08:01:47;0.10;;;0.10;;
15555;SDS011;7879;48.660;9.116;2023-10-09T08:04:22;0.10;;;0.10;;
15555;SDS011;7879;48.660;9.116;2023-10-09T08:07:09;0.10;;;0.10;;
15555;SDS011;7879;48.660;9.116;2023-10-09T08:10:07;0.10;;;0.10;;
15555;SDS011;7879;48.660;9.116;2023-10-09T08:12:43;0.10;;;0.10;;
15555;SDS011;7879;48.660;9.116;2023-10-09T08:15:11;0.10;;;0.10;;
15555;SDS011;7879;48.660;9.116;2023-10-09T08:17:54;0.10;;;0.10;;
15555;SDS011;7879;48.660;9.116;2023-10-09T08:20:30;0.10;;;0.10;;
15555;SDS011;7879;48.660;9.116;2023-10-09T08:23:17;0.10;;;0.10;;
15555;SDS011;7879;48.660;9.116;2023-10-09T08:28:41;0.00;;;0.00;;
15555;SDS011;7879;48.660;9.116;2023-10-09T08:31:16;0.03;;;0.03;;
15555;SDS011;7879;48.660;9.116;2023-10-09T08:34:12;0.05;;;0.05;;
15555;SDS011;7879;48.660;9.116;2023-10-09T08:40:44;0.10;;;0.10;;
15555;SDS011;7879;48.660;9.116;2023-10-09T08:43:18;0.10;;;0.10;;
15555;SDS011;7879;48.660;9.116;2023-10-09T08:48:19;0.10;;;0.10;;
15555;SDS011;7879;48.660;9.116;2023-10-09T08:50:53;0.10;;;0.10;;
15555;SDS011;7879;48.660;9.116;2023-10-09T08:53:22;0.10;;;0.10;;
15555;SDS011;7879;48.660;9.116;2023-10-09T08:55:57;0.10;;;0.10;;
15555;SDS011;7879;48.660;9.116;2023-10-09T08:58:24;0.10;;;0.10;;
15555;SDS011;7879;48.660;9.116;2023-10-09T09:00:54;0.00;;;0.00;;
15555;SDS011;7879;48.660;9.116;2023-10-09T09:03:29;0.10;;;0.10;;
15555;SDS011;7879;48.660;9.116;2023-10-09T09:06:14;0.00;;;0.00;;
15555;SDS011;7879;48.660;9.116;2023-10-09T09:08:42;0.00;;;0.00;;
15555;SDS011;7879;48.660;9.116;2023-10-09T09:11:15;0.10;;;0.10;;
15555;SDS011;7879;48.660;9.116;2023-10-09T09:13:45;0.10;;;0.10;;
15555;SDS011;7879;48.660;9.116;2023-10-09T09:16:55;0.00;;;0.00;;
15555;SDS011;7879;48.660;9.116;2023-10-09T09:19:30;0.10;;;0.10;;
15555;SDS011;7879;48.660;9.116;2023-10-09T09:22:01;0.00;;;0.00;;
15555;SDS011;7879;48.660;9.116;2023-10-09T09:24:58;0.08;;;0.08;;
15555;SDS011;7879;48.660;9.116;2023-10-09T09:27:45;0.00;;;0.00;;
15555;SDS011;7879;48.660;9.116;2023-10-09T09:30:26;0.00;;;0.00;;
15555;SDS011;7879;48.660;9.116;2023-10-09T09:33:18;0.10;;;0.10;;
15555;SDS011;7879;48.660;9.116;2023-10-09T09:35:57;0.03;;;0.03;;
15555;SDS011;7879;48.660;9.116;2023-10-09T09:38:32;0.00;;;0.00;;
15555;SDS011;7879;48.660;9.116;2023-10-09T09:41:08;0.00;;;0.00;;
15555;SDS011;7879;48.660;9.116;2023-10-09T09:43:38;0.00;;;0.00;;
15555;SDS011;7879;48.660;9.116;2023-10-09T09:46:07;0.00;;;0.00;;
15555;SDS011;7879;48.660;9.116;2023-10-09T09:48:38;0.00;;;0.00;;
15555;SDS011;7879;48.660;9.116;2023-10-09T09:51:12;0.00;;;0.00;;
15555;SDS011;7879;48.660;9.116;2023-10-09T09:53:41;0.00;;;0.00;;
15555;SDS011;7879;48.660;9.116;2023-10-09T09:56:08;0.00;;;0.00;;
15555;SDS011;7879;48.660;9.116;2023-10-09T09:58:43;0.00;;;0.00;;
15555;SDS011;7879;48.660;9.116;2023-10-09T10:01:19;0.00;;;0.00;;
15555;SDS011;7879;48.660;9.116;2023-10-09T10:03:57;0.00;;;0.00;;
15555;SDS011;7879;48.660;9.116;2023-10-09T10:06:30;0.00;;;0.00;;
15555;SDS011;7879;48.660;9.116;2023-10-09T10:09:00;0.00;;;0.00;;
15555;SDS011;7879;48.660;9.116;2023-10-09T10:14:13;0.00;;;0.00;;
15555;SDS011;7879;48.660;9.116;2023-10-09T10:17:05;0.00;;;0.00;;
15555;SDS011;7879;48.660;9.116;2023-10-09T10:22:26;0.00;;;0.00;;
15555;SDS011;7879;48.660;9.116;2023-10-09T10:24:54;0.00;;;0.00;;
15555;SDS011;7879;48.660;9.116;2023-10-09T10:27:25;0.00;;;0.00;;
15555;SDS011;7879;48.660;9.116;2023-10-09T10:35:21;0.00;;;0.00;;
15555;SDS011;7879;48.660;9.116;2023-10-09T10:38:21;0.00;;;0.00;;
15555;SDS011;7879;48.660;9.116;2023-10-09T10:40:48;0.00;;;0.00;;
15555;SDS011;7879;48.660;9.116;2023-10-09T10:43:23;0.00;;;0.00;;
15555;SDS011;7879;48.660;9.116;2023-10-09T10:46:09;0.00;;;0.00;;
15555;SDS011;7879;48.660;9.116;2023-10-09T10:49:01;0.00;;;0.00;;
15555;SDS011;7879;48.660;9.116;2023-10-09T10:51:42;0.00;;;0.00;;
15555;SDS011;7879;48.660;9.116;2023-10-09T10:54:25;0.00;;;0.00;;
15555;SDS011;7879;48.660;9.116;2023-10-09T10:56:57;0.00;;;0.00;;
15555;SDS011;7879;48.660;9.116;2023-10-09T10:59:38;0.00;;;0.00;;
15555;SDS011;7879;48.660;9.116;2023-10-09T11:02:11;0.00;;;0.00;;
15555;SDS011;7879;48.660;9.116;2023-10-09T11:04:39;0.00;;;0.00;;
15555;SDS011;7879;48.660;9.116;2023-10-09T11:07:10;0.00;;;0.00;;
15555;SDS011;7879;48.660;9.116;2023-10-09T11:09:51;0.00;;;0.00;;
15555;SDS011;7879;48.660;9.116;2023-10-09T11:12:42;0.00;;;0.00;;
15555;SDS011;7879;48.660;9.116;2023-10-09T11:15:35;0.00;;;0.00;;
15555;SDS011;7879;48.660;9.116;2023-10-09T11:18:39;0.00;;;0.00;;
15555;SDS011;7879;48.660;9.116;2023-10-09T11:21:15;0.00;;;0.00;;
15555;SDS011;7879;48.660;9.116;2023-10-09T11:23:42;0.00;;;0.00;;
15555;SDS011;7879;48.660;9.116;2023-10-09T11:26:33;0.00;;;0.00;;
15555;SDS011;7879;48.660;9.116;2023-10-09T11:29:10;0.00;;;0.00;;
15555;SDS011;7879;48.660;9.116;2023-10-09T11:31:58;0.00;;;0.00;;
15555;SDS011;7879;48.660;9.116;2023-10-09T11:34:34;0.00;;;0.00;;
15555;SDS011;7879;48.660;9.116;2023-10-09T11:37:15;0.00;;;0.00;;
15555;SDS011;7879;48.660;9.116;2023-10-09T11:39:42;0.00;;;0.00;;
15555;SDS011;7879;48.660;9.116;2023-10-09T11:42:20;0.00;;;0.00;;
15555;SDS011;7879;48.660;9.116;2023-10-09T11:45:07;0.00;;;0.00;;
15555;SDS011;7879;48.660;9.116;2023-10-09T11:47:55;0.00;;;0.00;;
15555;SDS011;7879;48.660;9.116;2023-10-09T11:53:43;0.00;;;0.00;;
15555;SDS011;7879;48.660;9.116;2023-10-09T11:56:12;0.00;;;0.00;;
15555;SDS011;7879;48.660;9.116;2023-10-09T11:58:49;0.00;;;0.00;;
15555;SDS011;7879;48.660;9.116;2023-10-09T12:01:17;0.00;;;0.00;;
15555;SDS011;7879;48.660;9.116;2023-10-09T12:03:47;0.00;;;0.00;;
15555;SDS011;7879;48.660;9.116;2023-10-09T12:13:30;0.00;;;0.00;;
15555;SDS011;7879;48.660;9.116;2023-10-09T12:15:57;0.00;;;0.00;;
15555;SDS011;7879;48.660;9.116;2023-10-09T12:18:24;0.00;;;0.00;;
15555;SDS011;7879;48.660;9.116;2023-10-09T12:20:51;0.00;;;0.00;;
15555;SDS011;7879;48.660;9.116;2023-10-09T12:23:19;0.00;;;0.00;;
15555;SDS011;7879;48.660;9.116;2023-10-09T12:25:49;0.00;;;0.00;;
15555;SDS011;7879;48.660;9.116;2023-10-09T12:28:16;0.00;;;0.00;;
15555;SDS011;7879;48.660;9.116;2023-10-09T12:30:47;0.00;;;0.00;;
15555;SDS011;7879;48.660;9.116;2023-10-09T12:33:17;0.00;;;0.00;;
15555;SDS011;7879;48.660;9.116;2023-10-09T12:35:46;0.00;;;0.00;;
15555;SDS011;7879;48.660;9.116;2023-10-09T12:38:14;0.00;;;0.00;;
15555;SDS011;7879;48.660;9.116;2023-10-09T12:40:45;0.00;;;0.00;;
15555;SDS011;7879;48.660;9.116;2023-10-09T12:43:19;0.00;;;0.00;;
15555;SDS011;7879;48.660;9.116;2023-10-09T12:45:46;0.00;;;0.00;;
15555;SDS011;7879;48.660;9.116;2023-10-09T12:48:13;0.00;;;0.00;;
15555;SDS011;7879;48.660;9.116;2023-10-09T12:50:41;0.00;;;0.00;;
15555;SDS011;7879;48.660;9.116;2023-10-09T12:53:08;0.00;;;0.00;;
15555;SDS011;7879;48.660;9.116;2023-10-09T12:55:35;0.00;;;0.00;;
15555;SDS011;7879;48.660;9.116;2023-10-09T12:58:07;0.00;;;0.00;;
15555;SDS011;7879;48.660;9.116;2023-10-09T13:00:36;0.00;;;0.00;;
15555;SDS011;7879;48.660;9.116;2023-10-09T13:03:05;0.00;;;0.00;;
15555;SDS011;7879;48.660;9.116;2023-10-09T13:05:54;0.00;;;0.00;;
15555;SDS011;7879;48.660;9.116;2023-10-09T13:10:50;0.00;;;0.00;;
15555;SDS011;7879;48.660;9.116;2023-10-09T13:13:25;0.00;;;0.00;;
15555;SDS011;7879;48.660;9.116;2023-10-09T13:16:09;0.00;;;0.00;;
15555;SDS011;7879;48.660;9.116;2023-10-09T13:18:39;0.00;;;0.00;;
15555;SDS011;7879;48.660;9.116;2023-10-09T13:21:08;0.00;;;0.00;;
15555;SDS011;7879;48.660;9.116;2023-10-09T13:23:35;0.00;;;0.00;;
15555;SDS011;7879;48.660;9.116;2023-10-09T13:26:06;0.00;;;0.00;;
15555;SDS011;7879;48.660;9.116;2023-10-09T13:28:58;0.00;;;0.00;;
15555;SDS011;7879;48.660;9.116;2023-10-09T13:31:26;0.00;;;0.00;;
15555;SDS011;7879;48.660;9.116;2023-10-09T13:33:54;0.00;;;0.00;;
15555;SDS011;7879;48.660;9.116;2023-10-09T13:36:25;0.00;;;0.00;;
15555;SDS011;7879;48.660;9.116;2023-10-09T13:41:49;0.00;;;0.00;;
15555;SDS011;7879;48.660;9.116;2023-10-09T13:44:28;0.00;;;0.00;;
15555;SDS011;7879;48.660;9.116;2023-10-09T13:46:59;0.00;;;0.00;;
15555;SDS011;7879;48.660;9.116;2023-10-09T13:49:28;0.00;;;0.00;;
15555;SDS011;7879;48.660;9.116;2023-10-09T13:51:58;0.00;;;0.00;;
15555;SDS011;7879;48.660;9.116;2023-10-09T13:54:28;0.00;;;0.00;;
15555;SDS011;7879;48.660;9.116;2023-10-09T13:57:02;0.00;;;0.00;;
15555;SDS011;7879;48.660;9.116;2023-10-09T13:59:34;0.00;;;0.00;;
15555;SDS011;7879;48.660;9.116;2023-10-09T14:02:02;0.00;;;0.00;;
15555;SDS011;7879;48.660;9.116;2023-10-09T14:04:36;0.00;;;0.00;;
15555;SDS011;7879;48.660;9.116;2023-10-09T14:07:03;0.00;;;0.00;;
15555;SDS011;7879;48.660;9.116;2023-10-09T14:09:33;0.00;;;0.00;;
15555;SDS011;7879;48.660;9.116;2023-10-09T14:12:21;0.00;;;0.00;;
15555;SDS011;7879;48.660;9.116;2023-10-09T14:14:50;0.00;;;0.00;;
15555;SDS011;7879;48.660;9.116;2023-10-09T14:17:21;0.00;;;0.00;;
15555;SDS011;7879;48.660;9.116;2023-10-09T14:19:55;0.00;;;0.00;;
15555;SDS011;7879;48.660;9.116;2023-10-09T14:22:42;0.00;;;0.00;;
15555;SDS011;7879;48.660;9.116;2023-10-09T14:25:11;0.00;;;0.00;;
15555;SDS011;7879;48.660;9.116;2023-10-09T14:27:42;0.00;;;0.00;;
15555;SDS011;7879;48.660;9.116;2023-10-09T14:30:08;0.00;;;0.00;;
15555;SDS011;7879;48.660;9.116;2023-10-09T14:32:45;0.00;;;0.00;;
15555;SDS011;7879;48.660;9.116;2023-10-09T14:35:18;0.00;;;0.00;;
15555;SDS011;7879;48.660;9.116;2023-10-09T14:37:48;0.00;;;0.00;;
15555;SDS011;7879;48.660;9.116;2023-10-09T14:40:15;0.00;;;0.00;;
15555;SDS011;7879;48.660;9.116;2023-10-09T14:42:47;0.00;;;0.00;;
15555;SDS011;7879;48.660;9.116;2023-10-09T14:45:22;0.00;;;0.00;;
15555;SDS011;7879;48.660;9.116;2023-10-09T14:47:53;0.00;;;0.00;;
15555;SDS011;7879;48.660;9.116;2023-10-09T14:50:26;0.00;;;0.00;;
15555;SDS011;7879;48.660;9.116;2023-10-09T14:52:53;0.00;;;0.00;;
15555;SDS011;7879;48.660;9.116;2023-10-09T14:55:20;0.00;;;0.00;;
15555;SDS011;7879;48.660;9.116;2023-10-09T14:57:48;0.00;;;0.00;;
15555;SDS011;7879;48.660;9.116;2023-10-09T15:00:16;0.00;;;0.00;;
15555;SDS011;7879;48.660;9.116;2023-10-09T15:02:50;0.00;;;0.00;;
15555;SDS011;7879;48.660;9.116;2023-10-09T15:05:18;0.00;;;0.00;;
15555;SDS011;7879;48.660;9.116;2023-10-09T15:07:45;0.00;;;0.00;;
15555;SDS011;7879;48.660;9.116;2023-10-09T15:10:13;0.00;;;0.00;;
15555;SDS011;7879;48.660;9.116;2023-10-09T15:12:44;0.00;;;0.00;;
15555;SDS011;7879;48.660;9.116;2023-10-09T15:15:13;0.00;;;0.00;;
15555;SDS011;7879;48.660;9.116;2023-10-09T15:17:41;0.00;;;0.00;;
15555;SDS011;7879;48.660;9.116;2023-10-09T15:20:15;0.00;;;0.00;;
15555;SDS011;7879;48.660;9.116;2023-10-09T15:22:42;0.00;;;0.00;;
15555;SDS011;7879;48.660;9.116;2023-10-09T15:25:10;0.00;;;0.00;;
15555;SDS011;7879;48.660;9.116;2023-10-09T15:27:44;0.00;;;0.00;;
15555;SDS011;7879;48.660;9.116;2023-10-09T15:30:11;0.00;;;0.00;;
15555;SDS011;7879;48.660;9.116;2023-10-09T15:32:43;0.00;;;0.00;;
15555;SDS011;7879;48.660;9.116;2023-10-09T15:35:10;0.00;;;0.00;;
15555;SDS011;7879;48.660;9.116;2023-10-09T15:37:39;0.00;;;0.00;;
15555;SDS011;7879;48.660;9.116;2023-10-09T15:40:07;0.00;;;0.00;;
15555;SDS011;7879;48.660;9.116;2023-10-09T15:42:45;0.00;;;0.00;;
15555;SDS011;7879;48.660;9.116;2023-10-09T15:45:17;0.00;;;0.00;;
15555;SDS011;7879;48.660;9.116;2023-10-09T15:47:48;0.00;;;0.00;;
15555;SDS011;7879;48.660;9.116;2023-10-09T15:50:18;0.00;;;0.00;;
15555;SDS011;7879;48.660;9.116;2023-10-09T15:52:45;0.00;;;0.00;;
15555;SDS011;7879;48.660;9.116;2023-10-09T15:55:15;0.00;;;0.00;;
15555;SDS011;7879;48.660;9.116;2023-10-09T15:57:47;0.00;;;0.00;;
15555;SDS011;7879;48.660;9.116;2023-10-09T16:00:25;0.00;;;0.00;;
15555;SDS011;7879;48.660;9.116;2023-10-09T16:02:55;0.00;;;0.00;;
15555;SDS011;7879;48.660;9.116;2023-10-09T16:05:23;0.00;;;0.00;;
15555;SDS011;7879;48.660;9.116;2023-10-09T16:07:52;0.00;;;0.00;;
15555;SDS011;7879;48.660;9.116;2023-10-09T16:10:20;0.00;;;0.00;;
15555;SDS011;7879;48.660;9.116;2023-10-09T16:12:48;0.00;;;0.00;;
15555;SDS011;7879;48.660;9.116;2023-10-09T16:15:17;0.00;;;0.00;;
15555;SDS011;7879;48.660;9.116;2023-10-09T16:17:46;0.00;;;0.00;;
15555;SDS011;7879;48.660;9.116;2023-10-09T16:20:14;0.03;;;0.03;;
15555;SDS011;7879;48.660;9.116;2023-10-09T16:22:48;0.00;;;0.00;;
15555;SDS011;7879;48.660;9.116;2023-10-09T16:25:16;0.00;;;0.00;;
15555;SDS011;7879;48.660;9.116;2023-10-09T16:27:47;0.00;;;0.00;;
15555;SDS011;7879;48.660;9.116;2023-10-09T16:30:15;0.00;;;0.00;;
15555;SDS011;7879;48.660;9.116;2023-10-09T16:32:49;0.00;;;0.00;;
15555;SDS011;7879;48.660;9.116;2023-10-09T16:35:17;0.00;;;0.00;;
15555;SDS011;7879;48.660;9.116;2023-10-09T16:37:48;0.00;;;0.00;;